Latest Weather Observations for Spitfire Channel

IDQ60801

Issued at 2:05 am EST Thursday 21 August 2014 (issued every 30 minutes, with the page automatically refreshed every 10 minutes)

About weather observations | Map of weather stations | Latest weather observations for QLD | Other Formats
Station Details ID: 040927 Name: SPITFIRE CHANNEL BEACON Lat: -27.05 Lon: 153.27 Height: 7.0 m
Data from the previous 72 hours. | See also: Recent months for locations in Queensland
Date/Time
EST
Temp
°C
App
Temp
°C
Dew
Point
Rel
Hum
%
Delta-T
°C
Wind Press
QNH
hPa
Press
MSL
hPa
Rain
since 9 am
mm
Dir
 
Spd
km/h
Gust
km/h
Spd
kts
Gust
kts
21/02:00am - - - - - S 30 35 16 19 - - -
21/01:30am - - - - - SSE 30 37 16 20 - - -
21/01:00am - - - - - SSE 30 37 16 20 - - -
21/12:30am - - - - - SSE 28 33 15 18 - - -
21/12:00am - - - - - SSE 26 33 14 18 - - -
 
Date/Time
EST
Temp
°C
App
Temp
°C
Dew
Point
Rel
Hum
%
Delta-T
°C
Wind Press
QNH
hPa
Press
MSL
hPa
Rain
since 9 am
mm
Dir
 
Spd
km/h
Gust
km/h
Spd
kts
Gust
kts
20/11:30pm - - - - - SSE 30 35 16 19 - - -
20/11:00pm - - - - - SSE 30 37 16 20 - - -
20/10:30pm - - - - - SE 32 37 17 20 - - -
20/10:00pm - - - - - SE 32 39 17 21 - - -
20/09:30pm - - - - - SE 33 39 18 21 - - -
20/09:00pm - - - - - SE 28 33 15 18 - - -
20/08:30pm - - - - - SE 30 35 16 19 - - -
20/08:00pm - - - - - SE 32 37 17 20 - - -
20/07:30pm - - - - - SE 30 35 16 19 - - -
20/07:00pm - - - - - SE 30 37 16 20 - - -
20/06:30pm - - - - - ESE 32 39 17 21 - - -
20/06:00pm - - - - - ESE 32 37 17 20 - - -
20/05:30pm - - - - - ESE 32 41 17 22 - - -
20/05:00pm - - - - - ESE 35 41 19 22 - - -
20/04:30pm - - - - - ESE 30 37 16 20 - - -
20/04:00pm - - - - - ESE 28 35 15 19 - - -
20/03:30pm - - - - - ESE 24 28 13 15 - - -
20/03:00pm - - - - - ESE 19 22 10 12 - - -
20/02:30pm - - - - - SE 19 22 10 12 - - -
20/02:00pm - - - - - SSE 19 22 10 12 - - -
20/01:30pm - - - - - SSE 17 20 9 11 - - -
20/01:00pm - - - - - S 17 22 9 12 - - -
20/12:30pm - - - - - SSE 15 17 8 9 - - -
20/12:00pm - - - - - SSE 19 22 10 12 - - -
20/11:30am - - - - - S 19 20 10 11 - - -
20/11:00am - - - - - S 20 26 11 14 - - -
20/10:30am - - - - - S 19 22 10 12 - - -
20/10:00am - - - - - S 19 20 10 11 - - -
20/09:30am - - - - - S 19 22 10 12 - - -
20/09:00am - - - - - S 19 22 10 12 - - -
20/08:30am - - - - - S 20 24 11 13 - - -
20/08:00am - - - - - S 22 26 12 14 - - -
20/07:30am - - - - - S 22 24 12 13 - - -
20/07:00am - - - - - S 20 22 11 12 - - -
20/06:30am - - - - - S 22 26 12 14 - - -
20/06:00am - - - - - S 22 26 12 14 - - -
20/05:30am - - - - - S 20 22 11 12 - - -
20/05:00am - - - - - SSW 9 15 5 8 - - -
20/04:30am - - - - - SSW 13 17 7 9 - - -
20/04:00am - - - - - SW 7 9 4 5 - - -
20/03:30am - - - - - SW 11 13 6 7 - - -
20/03:00am - - - - - SW 17 20 9 11 - - -
20/02:30am - - - - - SW 17 19 9 10 - - -
20/02:00am - - - - - SW 17 20 9 11 - - -
20/01:30am - - - - - SSW 19 22 10 12 - - -
20/01:00am - - - - - SSW 20 24 11 13 - - -
20/12:30am - - - - - SSW 17 20 9 11 - - -
20/12:00am - - - - - SSW 20 24 11 13 - - -
 
Date/Time
EST
Temp
°C
App
Temp
°C
Dew
Point
Rel
Hum
%
Delta-T
°C
Wind Press
QNH
hPa
Press
MSL
hPa
Rain
since 9 am
mm
Dir
 
Spd
km/h
Gust
km/h
Spd
kts
Gust
kts
19/11:30pm - - - - - SW 20 24 11 13 - - -
19/11:00pm - - - - - SW 17 20 9 11 - - -
19/10:30pm - - - - - SW 19 20 10 11 - - -
19/10:00pm - - - - - SW 17 20 9 11 - - -
19/09:30pm - - - - - SW 19 20 10 11 - - -
19/09:00pm - - - - - SW 26 33 14 18 - - -
19/08:30pm - - - - - SW 22 26 12 14 - - -
19/08:00pm - - - - - SW 26 33 14 18 - - -
19/07:30pm - - - - - SW 30 39 16 21 - - -
19/07:00pm - - - - - SW 22 26 12 14 - - -
19/06:30pm - - - - - SW 33 41 18 22 - - -
19/06:00pm - - - - - SW 24 28 13 15 - - -
19/05:30pm - - - - - SW 26 37 14 20 - - -
19/05:00pm - - - - - SW 32 39 17 21 - - -
19/04:30pm - - - - - SW 28 37 15 20 - - -
19/04:00pm - - - - - SW 22 30 12 16 - - -
19/03:30pm - - - - - SW 30 37 16 20 - - -
19/03:00pm - - - - - SW 26 35 14 19 - - -
19/02:30pm - - - - - SW 24 32 13 17 - - -
19/02:00pm - - - - - SW 22 30 12 16 - - -
19/01:30pm - - - - - SW 28 33 15 18 - - -
19/01:00pm - - - - - SW 32 39 17 21 - - -
19/12:30pm - - - - - SW 24 32 13 17 - - -
19/12:00pm - - - - - SW 20 28 11 15 - - -
19/11:30am - - - - - SW 26 37 14 20 - - -
19/11:00am - - - - - SW 24 37 13 20 - - -
19/10:30am - - - - - SW 24 33 13 18 - - -
19/10:00am - - - - - SW 28 35 15 19 - - -
19/09:30am - - - - - SW 37 44 20 24 - - -
19/09:00am - - - - - W 20 28 11 15 - - -
19/08:30am - - - - - W 35 41 19 22 - - -
19/08:00am - - - - - WNW 24 30 13 16 - - -
19/07:30am - - - - - W 30 35 16 19 - - -
19/07:00am - - - - - W 28 32 15 17 - - -
19/06:30am - - - - - W 26 33 14 18 - - -
19/06:00am - - - - - W 24 30 13 16 - - -
19/05:30am - - - - - W 19 24 10 13 - - -
19/05:00am - - - - - W 17 20 9 11 - - -
19/04:30am - - - - - W 20 26 11 14 - - -
19/04:00am - - - - - W 22 26 12 14 - - -
19/03:30am - - - - - WSW 19 22 10 12 - - -
19/03:00am - - - - - WSW 20 26 11 14 - - -
19/02:30am - - - - - WSW 26 30 14 16 - - -
19/02:00am - - - - - WSW 32 35 17 19 - - -
19/01:30am - - - - - WSW 37 44 20 24 - - -
19/01:00am - - - - - SW 30 39 16 21 - - -
19/12:30am - - - - - SW 28 35 15 19 - - -
19/12:00am - - - - - SW 26 30 14 16 - - -
 
Date/Time
EST
Temp
°C
App
Temp
°C
Dew
Point
Rel
Hum
%
Delta-T
°C
Wind Press
QNH
hPa
Press
MSL
hPa
Rain
since 9 am
mm
Dir
 
Spd
km/h
Gust
km/h
Spd
kts
Gust
kts
18/11:30pm - - - - - WSW 24 35 13 19 - - -
18/11:00pm - - - - - WSW 19 32 10 17 - - -
18/10:30pm - - - - - WSW 19 24 10 13 - - -
18/10:00pm - - - - - WSW 26 35 14 19 - - -
18/09:30pm - - - - - WSW 32 46 17 25 - - -
18/09:00pm - - - - - WSW 24 33 13 18 - - -
18/08:30pm - - - - - WSW 28 35 15 19 - - -
18/08:00pm - - - - - WSW 28 32 15 17 - - -
18/07:30pm - - - - - WSW 30 37 16 20 - - -
18/07:00pm - - - - - WSW 33 43 18 23 - - -
18/06:30pm - - - - - WSW 28 32 15 17 - - -
18/06:00pm - - - - - WSW 28 32 15 17 - - -
18/05:30pm - - - - - WSW 33 41 18 22 - - -
18/05:00pm - - - - - WSW 37 44 20 24 - - -
18/04:30pm - - - - - WSW 33 41 18 22 - - -
18/04:00pm - - - - - WSW 39 48 21 26 - - -
18/03:30pm - - - - - WSW 35 44 19 24 - - -
18/03:00pm - - - - - WSW 26 35 14 19 - - -
18/02:30pm - - - - - W 33 41 18 22 - - -
18/02:00pm - - - - - W 32 37 17 20 - - -
18/01:30pm - - - - - W 30 39 16 21 - - -
18/01:00pm - - - - - WSW 30 37 16 20 - - -
18/12:30pm - - - - - W 30 41 16 22 - - -
18/12:00pm - - - - - W 33 44 18 24 - - -
18/11:30am - - - - - W 35 46 19 25 - - -
18/11:09am - - - - - WSW 33 52 18 28 - - -
18/11:00am - - - - - WSW 32 39 17 21 - - -
18/10:32am - - - - - WSW 30 50 16 27 - - -
18/10:30am - - - - - WSW 30 37 16 20 - - -
18/10:00am - - - - - WSW 37 48 20 26 - - -
18/09:30am - - - - - SW 43 52 23 28 - - -
18/09:29am - - - - - SW 46 52 25 28 - - -
18/09:00am - - - - - W 26 35 14 19 - - -
18/08:30am - - - - - WNW 24 33 13 18 - - -
18/08:00am - - - - - WNW 30 35 16 19 - - -
18/07:30am - - - - - WNW 28 35 15 19 - - -
18/07:00am - - - - - WNW 28 35 15 19 - - -
18/06:30am - - - - - WNW 24 30 13 16 - - -
18/06:00am - - - - - WNW 26 32 14 17 - - -
18/05:30am - - - - - WNW 28 33 15 18 - - -
18/05:00am - - - - - W 28 32 15 17 - - -
18/04:30am - - - - - WNW 24 32 13 17 - - -
18/04:00am - - - - - WNW 22 28 12 15 - - -
18/03:30am - - - - - W 24 30 13 16 - - -
18/03:00am - - - - - WNW 22 26 12 14 - - -
18/02:30am - - - - - WNW 20 24 11 13 - - -

Other Formats:

Comma delimited format used in spreadsheet applications
http://www.bom.gov.au/fwo/IDQ60801/IDQ60801.94581.axf

JavaScript Object Notation format (JSON) in row-major order
http://www.bom.gov.au/fwo/IDQ60801/IDQ60801.94581.json